Time,TemperatureF,DewpointF,PressureIn,WindDirection,WindDirectionDegrees,WindSpeedMPH,WindSpeedGustMPH,Humidity,HourlyPrecipIn,Conditions,Clouds,dailyrainin,SoftwareType,DateUTC
2013-04-11 00:03:00,62.7,45.0,27.79,North,360,0.0,0.0,53,0.00,,,0.00,WSDL version 420,2013-04-11 04:03:00,
2013-04-11 00:08:00,62.5,45.4,27.79,North,360,0.0,0.0,54,0.00,,,0.00,WSDL version 420,2013-04-11 04:08:00,
2013-04-11 00:13:00,63.1,46.0,27.79,North,360,0.0,0.0,53,0.00,,,0.00,WSDL version 420,2013-04-11 04:13:00,
2013-04-11 00:18:00,63.1,46.0,27.79,North,360,0.0,0.0,54,0.00,,,0.00,WSDL version 420,2013-04-11 04:18:00,
2013-04-11 00:23:00,62.9,45.5,27.82,North,360,0.0,0.0,53,0.00,,,0.00,WSDL version 420,2013-04-11 04:23:00,
2013-04-11 00:28:00,62.4,45.2,27.82,NNE,23,0.0,0.0,54,0.00,,,0.00,WSDL version 420,2013-04-11 04:28:00,
2013-04-11 00:33:00,62.3,45.5,27.82,NNE,23,0.0,0.0,54,0.00,,,0.00,WSDL version 420,2013-04-11 04:33:00,
2013-04-11 00:38:00,62.1,45.2,27.82,North,360,0.0,0.0,54,0.00,,,0.00,WSDL version 420,2013-04-11 04:38:00,
2013-04-11 00:43:00,61.7,45.2,27.82,North,360,0.0,0.0,55,0.00,,,0.00,WSDL version 420,2013-04-11 04:43:00,
2013-04-11 00:48:00,61.8,45.5,27.82,North,360,0.0,0.0,55,0.00,,,0.00,WSDL version 420,2013-04-11 04:48:00,
2013-04-11 00:53:00,61.6,45.3,27.82,North,360,0.0,0.0,55,0.00,,,0.00,WSDL version 420,2013-04-11 04:53:00,
2013-04-11 00:58:00,61.4,45.1,27.82,North,360,0.0,0.0,55,0.00,,,0.00,WSDL version 420,2013-04-11 04:58:00,
2013-04-11 01:03:00,61.3,45.2,27.82,North,360,0.0,0.0,55,0.00,,,0.00,WSDL version 420,2013-04-11 05:03:00,
2013-04-11 01:08:00,61.2,45.3,27.82,North,360,0.0,0.0,56,0.00,,,0.00,WSDL version 420,2013-04-11 05:08:00,
2013-04-11 01:13:00,61.2,45.4,27.82,North,360,0.0,0.0,56,0.00,,,0.00,WSDL version 420,2013-04-11 05:13:00,
2013-04-11 01:18:00,61.2,45.4,27.82,North,360,0.0,0.0,56,0.00,,,0.00,WSDL version 420,2013-04-11 05:18:00,
2013-04-11 01:23:00,61.0,45.2,27.82,NNE,23,0.0,0.0,56,0.00,,,0.00,WSDL version 420,2013-04-11 05:23:00,
2013-04-11 01:28:00,60.7,45.2,27.82,NNE,23,0.0,0.0,57,0.00,,,0.00,WSDL version 420,2013-04-11 05:28:00,
2013-04-11 01:33:00,60.4,45.2,27.82,NNE,15,0.0,0.0,57,0.00,,,0.00,WSDL version 420,2013-04-11 05:33:00,
2013-04-11 01:38:00,60.1,44.9,27.79,North,360,0.0,0.0,57,0.00,,,0.00,WSDL version 420,2013-04-11 05:38:00,
2013-04-11 01:43:00,60.1,45.3,27.79,North,360,0.0,0.0,58,-99.99,,,-99.99,WSDL version 420,2013-04-11 05:43:00,
2013-04-11 01:48:00,60.1,45.3,27.79,North,360,0.0,0.0,58,0.00,,,0.00,WSDL version 420,2013-04-11 05:48:00,
2013-04-11 01:53:00,60.3,45.5,27.79,North,360,0.0,0.0,58,0.00,,,0.00,WSDL version 420,2013-04-11 05:53:00,
2013-04-11 01:58:00,60.4,45.6,27.79,North,360,0.0,0.0,58,0.00,,,0.00,WSDL version 420,2013-04-11 05:58:00,
2013-04-11 02:03:00,59.8,45.0,27.79,North,360,0.0,0.0,58,0.00,,,0.00,WSDL version 420,2013-04-11 06:03:00,
2013-04-11 02:08:00,59.8,45.0,27.79,North,360,0.0,0.0,58,0.00,,,0.00,WSDL version 420,2013-04-11 06:08:00,
2013-04-11 02:13:00,59.9,45.1,27.79,North,360,0.0,0.0,58,0.00,,,0.00,WSDL version 420,2013-04-11 06:13:00,
2013-04-11 02:18:00,59.9,45.3,27.79,North,360,0.0,0.0,58,0.00,,,0.00,WSDL version 420,2013-04-11 06:18:00,
2013-04-11 02:23:00,59.7,44.9,27.79,North,8,0.0,0.0,58,0.00,,,0.00,WSDL version 420,2013-04-11 06:23:00,
2013-04-11 02:28:00,59.7,44.9,27.79,NNE,23,0.0,0.0,58,0.00,,,0.00,WSDL version 420,2013-04-11 06:28:00,
2013-04-11 02:33:00,59.7,45.4,27.79,NNE,23,0.0,0.0,59,0.00,,,0.00,WSDL version 420,2013-04-11 06:33:00,
2013-04-11 02:38:00,59.7,45.2,27.79,NNE,23,0.0,0.0,58,0.00,,,0.00,WSDL version 420,2013-04-11 06:38:00,
2013-04-11 02:43:00,59.3,44.5,27.79,NNE,23,0.0,0.0,58,0.00,,,0.00,WSDL version 420,2013-04-11 06:43:00,
2013-04-11 02:48:00,59.2,44.4,27.79,NNE,23,0.0,0.0,58,0.00,,,0.00,WSDL version 420,2013-04-11 06:48:00,
2013-04-11 02:53:00,58.9,44.4,27.79,NNE,23,0.0,0.0,59,0.00,,,0.00,WSDL version 420,2013-04-11 06:53:00,
2013-04-11 02:58:00,58.6,44.5,27.79,North,360,0.0,0.0,59,0.00,,,0.00,WSDL version 420,2013-04-11 06:58:00,
2013-04-11 03:03:00,58.3,44.3,27.79,North,360,0.0,0.0,60,0.00,,,0.00,WSDL version 420,2013-04-11 07:03:00,
2013-04-11 03:08:00,58.5,44.7,27.79,North,360,0.0,0.0,60,0.00,,,0.00,WSDL version 420,2013-04-11 07:08:00,
2013-04-11 03:13:00,58.6,44.8,27.79,North,360,0.0,0.0,60,0.00,,,0.00,WSDL version 420,2013-04-11 07:13:00,
2013-04-11 03:18:00,58.3,44.2,27.79,North,360,0.0,0.0,60,0.00,,,0.00,WSDL version 420,2013-04-11 07:18:00,
2013-04-11 03:23:00,58.3,44.5,27.79,North,360,0.0,0.0,60,0.00,,,0.00,WSDL version 420,2013-04-11 07:23:00,
2013-04-11 03:28:00,58.2,44.5,27.79,North,360,0.0,0.0,60,-99.99,,,-99.99,WSDL version 420,2013-04-11 07:28:00,
2013-04-11 03:33:00,57.9,44.3,27.79,North,360,0.0,0.0,61,0.00,,,0.00,WSDL version 420,2013-04-11 07:33:00,
2013-04-11 03:38:00,57.6,43.9,27.79,North,360,0.0,0.0,60,0.00,,,0.00,WSDL version 420,2013-04-11 07:38:00,
2013-04-11 03:43:00,57.6,44.0,27.79,North,360,0.0,0.0,60,0.00,,,0.00,WSDL version 420,2013-04-11 07:43:00,
2013-04-11 03:48:00,57.6,43.9,27.79,North,360,0.0,0.0,60,0.00,,,0.00,WSDL version 420,2013-04-11 07:48:00,
2013-04-11 03:53:00,57.0,43.7,27.76,North,360,0.0,0.0,62,0.00,,,0.00,WSDL version 420,2013-04-11 07:53:00,
2013-04-11 03:58:00,56.9,44.0,27.76,NNW,338,0.0,0.0,62,0.00,,,0.00,WSDL version 420,2013-04-11 07:58:00,
2013-04-11 04:03:00,57.0,44.4,27.76,NNW,338,0.0,0.0,63,0.00,,,0.00,WSDL version 420,2013-04-11 08:03:00,
2013-04-11 04:08:00,57.0,44.6,27.76,NNW,338,0.0,0.0,63,0.00,,,0.00,WSDL version 420,2013-04-11 08:08:00,
2013-04-11 04:13:00,56.9,44.5,27.76,NE,45,0.0,0.0,63,0.00,,,0.00,WSDL version 420,2013-04-11 08:13:00,
2013-04-11 04:18:00,57.0,44.2,27.76,NNW,338,0.0,0.0,62,0.00,,,0.00,WSDL version 420,2013-04-11 08:18:00,
2013-04-11 04:23:00,56.7,44.3,27.79,NNW,338,0.0,0.0,63,0.00,,,0.00,WSDL version 420,2013-04-11 08:23:00,
2013-04-11 04:28:00,56.7,44.1,27.79,NNW,338,0.0,0.0,63,0.00,,,0.00,WSDL version 420,2013-04-11 08:28:00,
2013-04-11 04:33:00,56.7,44.6,27.79,NNW,338,0.0,0.0,64,0.00,,,0.00,WSDL version 420,2013-04-11 08:33:00,
2013-04-11 04:38:00,56.6,44.6,27.79,NNW,338,0.0,0.0,64,0.00,,,0.00,WSDL version 420,2013-04-11 08:38:00,
2013-04-11 04:43:00,56.5,44.5,27.79,NNW,338,0.0,0.0,64,0.00,,,0.00,WSDL version 420,2013-04-11 08:43:00,
2013-04-11 04:53:00,56.2,44.1,27.79,NNW,338,0.0,0.0,64,0.00,,,0.00,WSDL version 420,2013-04-11 08:53:00,
2013-04-11 04:58:00,56.2,44.2,27.79,NNW,338,0.0,0.0,64,0.00,,,0.00,WSDL version 420,2013-04-11 08:58:00,
2013-04-11 05:03:00,56.2,44.4,27.79,NNW,338,0.0,0.0,64,0.00,,,0.00,WSDL version 420,2013-04-11 09:03:00,
2013-04-11 05:08:00,56.1,44.3,27.79,NNW,338,0.0,0.0,65,0.00,,,0.00,WSDL version 420,2013-04-11 09:08:00,
2013-04-11 05:13:00,56.2,44.4,27.79,NNW,338,0.0,0.0,64,0.00,,,0.00,WSDL version 420,2013-04-11 09:13:00,
2013-04-11 05:18:00,56.1,44.1,27.79,NNW,338,0.0,0.0,64,0.00,,,0.00,WSDL version 420,2013-04-11 09:18:00,
2013-04-11 05:23:00,56.1,44.5,27.79,NNW,338,0.0,0.0,65,0.00,,,0.00,WSDL version 420,2013-04-11 09:23:00,
2013-04-11 05:28:00,55.8,43.8,27.79,NNW,338,0.0,0.0,64,0.00,,,0.00,WSDL version 420,2013-04-11 09:28:00,
2013-04-11 05:33:00,55.5,43.6,27.79,NNW,338,0.0,0.0,64,0.00,,,0.00,WSDL version 420,2013-04-11 09:33:00,
2013-04-11 05:38:00,55.4,43.4,27.79,NNW,338,0.0,0.0,64,0.00,,,0.00,WSDL version 420,2013-04-11 09:38:00,
2013-04-11 05:43:00,55.3,43.8,27.79,NNW,338,0.0,0.0,65,0.00,,,0.00,WSDL version 420,2013-04-11 09:43:00,
2013-04-11 05:48:00,55.3,44.0,27.79,NNW,338,0.0,0.0,66,0.00,,,0.00,WSDL version 420,2013-04-11 09:48:00,
2013-04-11 05:53:00,55.5,44.3,27.79,NNW,338,0.0,0.0,66,0.00,,,0.00,WSDL version 420,2013-04-11 09:53:00,
2013-04-11 05:58:00,55.3,44.2,27.79,NNW,338,0.0,0.0,66,0.00,,,0.00,WSDL version 420,2013-04-11 09:58:00,
2013-04-11 06:03:00,55.0,43.8,27.79,NNW,338,0.0,0.0,66,0.00,,,0.00,WSDL version 420,2013-04-11 10:03:00,
2013-04-11 06:08:00,54.8,43.6,27.79,NNW,338,0.0,0.0,66,0.00,,,0.00,WSDL version 420,2013-04-11 10:08:00,
2013-04-11 06:13:00,55.0,44.2,27.79,NNW,338,0.0,0.0,67,0.00,,,0.00,WSDL version 420,2013-04-11 10:13:00,
2013-04-11 06:18:00,55.2,44.5,27.79,NNW,338,0.0,0.0,67,0.00,,,0.00,WSDL version 420,2013-04-11 10:18:00,
2013-04-11 06:23:00,55.2,44.4,27.79,NNW,338,0.0,0.0,67,0.00,,,0.00,WSDL version 420,2013-04-11 10:23:00,
2013-04-11 06:28:00,54.9,44.1,27.79,NNW,338,0.0,0.0,67,0.00,,,0.00,WSDL version 420,2013-04-11 10:28:00,
2013-04-11 06:33:00,54.7,44.0,27.79,NNW,338,0.0,0.0,67,0.00,,,0.00,WSDL version 420,2013-04-11 10:33:00,
2013-04-11 06:38:00,54.8,44.0,27.79,NNW,338,0.0,0.0,67,0.00,,,0.00,WSDL version 420,2013-04-11 10:38:00,
2013-04-11 06:43:00,54.8,44.1,27.79,NNW,338,0.0,0.0,67,0.00,,,0.00,WSDL version 420,2013-04-11 10:43:00,
2013-04-11 06:48:00,54.7,44.0,27.79,NNW,338,0.0,0.0,67,0.00,,,0.00,WSDL version 420,2013-04-11 10:48:00,
2013-04-11 06:53:00,55.0,44.6,27.79,NNW,338,0.0,0.0,68,0.00,,,0.00,WSDL version 420,2013-04-11 10:53:00,
2013-04-11 06:58:00,54.9,44.3,27.79,NNW,338,0.0,0.0,67,0.00,,,0.00,WSDL version 420,2013-04-11 10:58:00,
2013-04-11 07:03:00,54.8,44.1,27.79,NNW,338,0.0,0.0,67,0.00,,,0.00,WSDL version 420,2013-04-11 11:03:00,
2013-04-11 07:08:00,54.6,44.1,27.79,NNW,338,0.0,0.0,68,0.00,,,0.00,WSDL version 420,2013-04-11 11:08:00,
2013-04-11 07:13:00,55.0,44.6,27.79,NNW,338,0.0,0.0,68,0.00,,,0.00,WSDL version 420,2013-04-11 11:13:00,
2013-04-11 07:18:00,55.1,44.7,27.79,NNW,338,0.0,0.0,68,0.00,,,0.00,WSDL version 420,2013-04-11 11:18:00,
2013-04-11 07:23:00,55.1,44.7,27.79,NNW,338,0.0,0.0,68,0.00,,,0.00,WSDL version 420,2013-04-11 11:23:00,
2013-04-11 07:28:00,55.0,44.7,27.79,NNW,338,0.0,0.0,68,0.00,,,0.00,WSDL version 420,2013-04-11 11:28:00,
2013-04-11 07:33:00,55.2,45.0,27.79,NNE,17,0.0,0.0,68,0.00,,,0.00,WSDL version 420,2013-04-11 11:33:00,
2013-04-11 07:38:00,55.3,44.9,27.79,NNE,23,0.0,0.0,68,0.00,,,0.00,WSDL version 420,2013-04-11 11:38:00,
2013-04-11 07:43:00,55.4,45.0,27.79,NNE,23,0.0,0.0,68,0.00,,,0.00,WSDL version 420,2013-04-11 11:43:00,
2013-04-11 07:48:00,55.4,45.0,27.79,NNE,23,0.0,0.0,68,0.00,,,0.00,WSDL version 420,2013-04-11 11:48:00,
2013-04-11 07:53:00,55.5,45.3,27.79,NNE,23,0.0,0.0,69,0.00,,,0.00,WSDL version 420,2013-04-11 11:53:00,
2013-04-11 07:58:00,55.9,45.9,27.79,West,278,0.0,0.0,69,0.00,,,0.00,WSDL version 420,2013-04-11 11:58:00,
2013-04-11 08:03:00,55.9,45.9,27.79,West,270,0.0,0.0,69,0.00,,,0.00,WSDL version 420,2013-04-11 12:03:00,
2013-04-11 08:08:00,56.2,46.6,27.79,West,270,0.0,0.0,70,0.00,,,0.00,WSDL version 420,2013-04-11 12:08:00,
2013-04-11 08:13:00,56.3,46.7,27.79,West,270,0.0,0.0,70,0.00,,,0.00,WSDL version 420,2013-04-11 12:13:00,
2013-04-11 08:18:00,56.4,46.8,27.79,West,270,0.0,0.0,70,0.00,,,0.00,WSDL version 420,2013-04-11 12:18:00,
2013-04-11 08:23:00,56.7,47.0,27.79,West,270,0.0,0.0,70,0.00,,,0.00,WSDL version 420,2013-04-11 12:23:00,
2013-04-11 08:28:00,56.8,47.2,27.79,West,270,0.0,0.0,70,0.00,,,0.00,WSDL version 420,2013-04-11 12:28:00,
2013-04-11 08:33:00,57.0,47.2,27.79,West,270,0.0,0.0,69,0.00,,,0.00,WSDL version 420,2013-04-11 12:33:00,
2013-04-11 08:38:00,57.4,47.3,27.79,West,270,0.0,0.0,69,0.00,,,0.00,WSDL version 420,2013-04-11 12:38:00,
2013-04-11 08:43:00,57.9,47.8,27.79,West,270,0.0,0.0,69,0.00,,,0.00,WSDL version 420,2013-04-11 12:43:00,
2013-04-11 08:48:00,58.4,48.7,27.79,West,270,0.0,0.0,70,0.00,,,0.00,WSDL version 420,2013-04-11 12:48:00,
2013-04-11 08:53:00,59.0,49.4,27.79,West,270,0.0,0.0,70,0.00,,,0.00,WSDL version 420,2013-04-11 12:53:00,
2013-04-11 08:58:00,59.4,49.6,27.79,West,270,0.0,0.0,70,0.00,,,0.00,WSDL version 420,2013-04-11 12:58:00,
2013-04-11 09:03:00,59.9,50.1,27.79,West,270,0.0,0.0,70,0.00,,,0.00,WSDL version 420,2013-04-11 13:03:00,
2013-04-11 09:08:00,60.3,50.2,27.79,West,270,0.0,0.0,69,0.00,,,0.00,WSDL version 420,2013-04-11 13:08:00,
2013-04-11 09:13:00,60.6,50.8,27.79,West,270,0.0,0.0,70,0.00,,,0.00,WSDL version 420,2013-04-11 13:13:00,
2013-04-11 09:18:00,61.4,51.3,27.79,West,270,0.0,0.0,69,0.00,,,0.00,WSDL version 420,2013-04-11 13:18:00,
2013-04-11 09:23:00,62.1,51.4,27.79,East,90,0.0,0.0,68,0.00,,,0.00,WSDL version 420,2013-04-11 13:23:00,
2013-04-11 09:28:00,62.6,51.2,27.79,East,90,0.0,0.0,66,0.00,,,0.00,WSDL version 420,2013-04-11 13:28:00,
2013-04-11 09:33:00,63.1,51.2,27.79,East,90,0.0,0.0,65,0.00,,,0.00,WSDL version 420,2013-04-11 13:33:00,
2013-04-11 09:38:00,63.7,51.6,27.79,East,90,0.0,0.0,64,0.00,,,0.00,WSDL version 420,2013-04-11 13:38:00,
2013-04-11 09:43:00,64.2,51.4,27.79,East,90,0.0,0.0,63,0.00,,,0.00,WSDL version 420,2013-04-11 13:43:00,
2013-04-11 09:48:00,64.5,51.6,27.79,East,90,0.0,0.0,63,0.00,,,0.00,WSDL version 420,2013-04-11 13:48:00,
2013-04-11 09:53:00,64.9,51.6,27.79,East,90,0.0,0.0,62,0.00,,,0.00,WSDL version 420,2013-04-11 13:53:00,
2013-04-11 09:58:00,65.2,51.4,27.79,East,90,0.0,0.0,61,0.00,,,0.00,WSDL version 420,2013-04-11 13:58:00,
2013-04-11 10:03:00,65.8,51.7,27.79,SSW,203,0.0,0.0,60,0.00,,,0.00,WSDL version 420,2013-04-11 14:03:00,
2013-04-11 10:08:00,66.3,51.1,27.79,WNW,293,0.0,0.0,57,0.00,,,0.00,WSDL version 420,2013-04-11 14:08:00,
2013-04-11 10:13:00,66.9,51.1,27.79,West,281,0.0,1.3,56,0.00,,,0.00,WSDL version 420,2013-04-11 14:13:00,
2013-04-11 10:18:00,67.4,51.2,27.79,NE,34,0.9,3.6,56,0.00,,,0.00,WSDL version 420,2013-04-11 14:18:00,
2013-04-11 10:23:00,67.7,50.6,27.79,SSW,208,1.0,3.6,54,0.00,,,0.00,WSDL version 420,2013-04-11 14:23:00,
2013-04-11 10:28:00,67.9,50.0,27.79,West,278,0.3,2.0,52,0.00,,,0.00,WSDL version 420,2013-04-11 14:28:00,
2013-04-11 10:33:00,68.4,50.1,27.79,ESE,120,0.0,1.6,52,0.00,,,0.00,WSDL version 420,2013-04-11 14:33:00,
2013-04-11 10:38:00,68.8,49.9,27.79,SW,225,2.0,2.7,51,0.00,,,0.00,WSDL version 420,2013-04-11 14:38:00,
2013-04-11 10:43:00,69.1,49.7,27.79,SSW,203,0.3,3.1,49,0.00,,,0.00,WSDL version 420,2013-04-11 14:43:00,
2013-04-11 10:48:00,69.1,49.1,27.79,SSW,195,3.1,4.0,49,0.00,,,0.00,WSDL version 420,2013-04-11 14:48:00,
2013-04-11 10:53:00,69.3,48.8,27.79,South,188,2.4,4.0,48,0.00,,,0.00,WSDL version 420,2013-04-11 14:53:00,
2013-04-11 10:58:00,69.4,48.5,27.79,SW,218,1.9,4.0,47,0.00,,,0.00,WSDL version 420,2013-04-11 14:58:00,
2013-04-11 11:03:00,69.5,48.2,27.79,WNW,293,0.0,4.0,47,0.00,,,0.00,WSDL version 420,2013-04-11 15:03:00,
2013-04-11 11:08:00,69.4,48.0,27.79,SW,218,2.8,4.0,46,0.00,,,0.00,WSDL version 420,2013-04-11 15:08:00,
2013-04-11 11:13:00,69.4,47.2,27.79,NNW,338,1.0,3.4,45,0.00,,,0.00,WSDL version 420,2013-04-11 15:13:00,
2013-04-11 11:18:00,69.8,47.5,27.79,South,188,1.4,2.0,45,0.00,,,0.00,WSDL version 420,2013-04-11 15:18:00,
2013-04-11 11:23:00,70.3,48.0,27.79,SSW,203,1.0,2.0,45,0.00,,,0.00,WSDL version 420,2013-04-11 15:23:00,
2013-04-11 11:28:00,70.9,48.0,27.79,South,173,1.5,2.2,44,0.00,,,0.00,WSDL version 420,2013-04-11 15:28:00,
2013-04-11 11:33:00,71.3,48.3,27.79,South,191,1.3,2.9,44,0.00,,,0.00,WSDL version 420,2013-04-11 15:33:00,
2013-04-11 11:43:00,72.6,48.6,27.79,SSW,208,0.2,3.6,42,0.00,,,0.00,WSDL version 420,2013-04-11 15:43:00,
2013-04-11 11:53:00,73.3,48.8,27.76,West,259,1.3,2.9,42,0.00,,,0.00,WSDL version 420,2013-04-11 15:53:00,
2013-04-11 11:58:00,73.4,48.3,27.76,NW,308,3.1,3.1,41,0.00,,,0.00,WSDL version 420,2013-04-11 15:58:00,
2013-04-11 12:03:00,73.7,48.6,27.76,SSW,203,1.0,4.3,41,0.00,,,0.00,WSDL version 420,2013-04-11 16:03:00,
2013-04-11 12:08:00,74.1,48.9,27.76,West,263,1.5,4.3,41,0.00,,,0.00,WSDL version 420,2013-04-11 16:08:00,
2013-04-11 12:13:00,74.5,48.6,27.76,South,191,1.3,2.7,40,0.00,,,0.00,WSDL version 420,2013-04-11 16:13:00,
2013-04-11 12:20:00,75.1,49.2,27.76,SSE,152,2.3,2.7,40,0.00,,,0.00,WSDL version 420,2013-04-11 16:20:00,
2013-04-11 12:25:00,75.3,49.3,27.76,WNW,300,2.2,3.4,40,0.00,,,0.00,WSDL version 420,2013-04-11 16:25:00,
2013-04-11 12:30:00,74.8,48.2,27.76,South,191,1.4,3.8,38,0.00,,,0.00,WSDL version 420,2013-04-11 16:30:00,
2013-04-11 12:35:00,74.3,47.3,27.76,WSW,248,0.0,3.8,38,0.00,,,0.00,WSDL version 420,2013-04-11 16:35:00,
2013-04-11 12:40:00,74.0,47.5,27.76,ENE,75,1.3,2.9,39,0.00,,,0.00,WSDL version 420,2013-04-11 16:40:00,
2013-04-11 12:45:00,73.8,47.5,27.76,NNW,330,0.4,3.6,40,0.00,,,0.00,WSDL version 420,2013-04-11 16:45:00,
2013-04-11 12:50:00,74.2,48.3,27.73,SW,236,1.0,3.6,40,0.00,,,0.00,WSDL version 420,2013-04-11 16:50:00,
2013-04-11 12:55:00,74.7,48.8,27.73,South,188,2.8,3.4,41,0.00,,,0.00,WSDL version 420,2013-04-11 16:55:00,
2013-04-11 13:00:00,74.7,48.4,27.73,NNW,345,1.9,3.4,39,0.00,,,0.00,WSDL version 420,2013-04-11 17:00:00,
2013-04-11 13:05:00,74.6,48.3,27.73,SSW,203,0.3,2.9,39,0.00,,,0.00,WSDL version 420,2013-04-11 17:05:00,
2013-04-11 13:10:00,74.7,47.9,27.73,SW,218,1.4,3.6,38,0.00,,,0.00,WSDL version 420,2013-04-11 17:10:00,
2013-04-11 13:15:00,74.8,48.2,27.73,North,353,0.4,3.6,39,0.00,,,0.00,WSDL version 420,2013-04-11 17:15:00,
2013-04-11 13:20:00,74.5,47.3,27.73,NW,304,0.7,1.6,38,0.00,,,0.00,WSDL version 420,2013-04-11 17:20:00,
2013-04-11 13:25:00,74.5,47.2,27.73,WNW,293,1.2,2.5,38,0.00,,,0.00,WSDL version 420,2013-04-11 17:25:00,
2013-04-11 13:30:00,74.4,47.0,27.73,SE,135,0.6,2.5,37,0.00,,,0.00,WSDL version 420,2013-04-11 17:30:00,
2013-04-11 13:35:00,75.1,48.0,27.70,WNW,293,2.3,2.9,38,0.00,,,0.00,WSDL version 420,2013-04-11 17:35:00,
2013-04-11 13:40:00,76.2,48.7,27.70,NW,326,2.3,2.9,37,0.00,,,0.00,WSDL version 420,2013-04-11 17:40:00,
2013-04-11 13:45:00,76.4,48.2,27.70,SE,143,0.8,2.9,37,0.00,,,0.00,WSDL version 420,2013-04-11 17:45:00,
2013-04-11 13:50:00,77.0,48.8,27.70,NNE,17,1.2,2.9,37,0.00,,,0.00,WSDL version 420,2013-04-11 17:50:00,
2013-04-11 13:55:00,77.5,48.5,27.70,SW,233,1.2,2.7,36,0.00,,,0.00,WSDL version 420,2013-04-11 17:55:00,
2013-04-11 14:01:00,77.9,48.1,27.70,South,188,2.1,2.9,34,0.00,,,0.00,WSDL version 420,2013-04-11 18:01:00,
2013-04-11 14:06:00,77.8,47.3,27.70,NE,34,1.9,2.9,34,0.00,,,0.00,WSDL version 420,2013-04-11 18:06:00,
2013-04-11 14:11:00,77.4,46.9,27.70,ESE,120,1.6,2.7,34,0.00,,,0.00,WSDL version 420,2013-04-11 18:11:00,
2013-04-11 14:16:00,77.5,47.0,27.70,NW,309,1.0,2.7,34,0.00,,,0.00,WSDL version 420,2013-04-11 18:16:00,
2013-04-11 14:22:00,77.8,47.2,27.70,West,259,1.8,2.7,35,0.00,,,0.00,WSDL version 420,2013-04-11 18:22:00,
2013-04-11 14:32:00,78.3,47.1,27.70,ENE,68,1.5,2.9,33,0.00,,,0.00,WSDL version 420,2013-04-11 18:32:00,
2013-04-11 14:41:00,79.1,47.0,27.67,NE,45,1.5,3.6,32,0.00,,,0.00,WSDL version 420,2013-04-11 18:41:00,
2013-04-11 14:46:00,79.0,46.6,27.67,NW,321,1.7,3.6,32,0.00,,,0.00,WSDL version 420,2013-04-11 18:46:00,
2013-04-11 14:52:00,79.0,46.4,27.67,WNW,293,2.5,3.1,32,0.00,,,0.00,WSDL version 420,2013-04-11 18:52:00,
2013-04-11 15:02:00,79.7,47.0,27.67,West,281,2.3,2.9,32,0.00,,,0.00,WSDL version 420,2013-04-11 19:02:00,
2013-04-11 15:12:00,80.1,47.2,27.67,ENE,68,0.9,3.8,31,0.00,,,0.00,WSDL version 420,2013-04-11 19:12:00,
2013-04-11 15:17:00,80.4,47.5,27.67,NW,308,1.3,3.1,31,0.00,,,0.00,WSDL version 420,2013-04-11 19:17:00,
2013-04-11 15:22:00,80.4,47.1,27.67,SE,135,2.0,3.1,31,0.00,,,0.00,WSDL version 420,2013-04-11 19:22:00,
2013-04-11 15:32:00,81.1,47.4,27.67,SSE,163,1.5,2.2,31,0.00,,,0.00,WSDL version 420,2013-04-11 19:32:00,
2013-04-11 15:37:00,81.2,47.1,27.64,SSE,158,1.6,2.9,30,0.00,,,0.00,WSDL version 420,2013-04-11 19:37:00,
2013-04-11 15:47:00,81.7,47.3,27.64,SE,141,1.2,2.5,30,0.00,,,0.00,WSDL version 420,2013-04-11 19:47:00,
2013-04-11 15:56:00,81.7,47.3,27.64,SSW,195,1.6,2.2,30,0.00,,,0.00,WSDL version 420,2013-04-11 19:56:00,
2013-04-11 16:02:00,81.9,47.5,27.64,SSE,150,0.9,2.9,30,0.00,,,0.00,WSDL version 420,2013-04-11 20:02:00,
2013-04-11 16:12:00,81.2,46.9,27.64,South,180,0.2,1.6,30,0.00,,,0.00,WSDL version 420,2013-04-11 20:12:00,
2013-04-11 16:21:00,80.6,46.3,27.64,West,263,0.0,2.5,30,0.00,,,0.00,WSDL version 420,2013-04-11 20:21:00,
2013-04-11 16:27:00,80.3,46.1,27.64,SSW,203,0.0,2.5,30,0.00,,,0.00,WSDL version 420,2013-04-11 20:27:00,
2013-04-11 16:32:00,80.3,46.1,27.64,SSW,203,2.2,2.7,30,0.00,,,0.00,WSDL version 420,2013-04-11 20:32:00,
2013-04-11 16:41:00,79.8,45.6,27.61,SSE,149,1.7,2.9,30,0.00,,,0.00,WSDL version 420,2013-04-11 20:41:00,
2013-04-11 16:48:00,79.9,46.2,27.61,WSW,255,1.0,2.9,31,0.00,,,0.00,WSDL version 420,2013-04-11 20:48:00,
2013-04-11 16:53:00,79.5,45.4,27.61,SSE,165,1.4,2.9,30,0.00,,,0.00,WSDL version 420,2013-04-11 20:53:00,
2013-04-11 16:58:00,79.2,45.4,27.61,SW,225,1.6,2.0,31,0.00,,,0.00,WSDL version 420,2013-04-11 20:58:00,
2013-04-11 17:08:00,78.4,45.3,27.61,SW,219,0.0,1.6,31,0.00,,,0.00,WSDL version 420,2013-04-11 21:08:00,
2013-04-11 17:13:00,78.3,45.2,27.61,South,174,1.7,2.5,31,0.00,,,0.00,WSDL version 420,2013-04-11 21:13:00,
2013-04-11 17:18:00,78.3,45.2,27.61,SE,128,1.1,2.5,31,0.00,,,0.00,WSDL version 420,2013-04-11 21:18:00,
2013-04-11 17:23:00,78.0,45.0,27.61,NE,53,0.4,1.6,31,0.00,,,0.00,WSDL version 420,2013-04-11 21:23:00,
2013-04-11 17:33:00,77.5,44.5,27.61,South,173,1.3,2.5,31,0.00,,,0.00,WSDL version 420,2013-04-11 21:33:00,
2013-04-11 17:38:00,77.1,44.5,27.61,East,90,0.4,2.5,32,0.00,,,0.00,WSDL version 420,2013-04-11 21:38:00,
2013-04-11 17:43:00,76.7,44.7,27.61,NNE,30,2.2,2.7,32,0.00,,,0.00,WSDL version 420,2013-04-11 21:43:00,
2013-04-11 17:53:00,77.0,44.9,27.64,NE,45,1.3,2.2,32,0.00,,,0.00,WSDL version 420,2013-04-11 21:53:00,
2013-04-11 17:58:00,76.9,44.8,27.64,SE,135,1.9,2.9,32,0.00,,,0.00,WSDL version 420,2013-04-11 21:58:00,
2013-04-11 18:03:00,76.8,44.8,27.64,NE,53,1.0,3.1,32,0.00,,,0.00,WSDL version 420,2013-04-11 22:03:00,
2013-04-11 18:08:00,76.6,44.6,27.61,SW,219,1.6,3.1,32,-99.99,,,-99.99,WSDL version 420,2013-04-11 22:08:00,
2013-04-11 18:18:00,76.4,44.4,27.61,SSW,203,1.3,2.5,32,0.00,,,0.00,WSDL version 420,2013-04-11 22:18:00,
2013-04-11 18:23:00,76.3,44.3,27.64,NNE,23,1.1,2.5,32,0.00,,,0.00,WSDL version 420,2013-04-11 22:23:00,
2013-04-11 18:28:00,76.1,44.1,27.64,ENE,68,2.3,2.5,32,0.00,,,0.00,WSDL version 420,2013-04-11 22:28:00,
2013-04-11 18:33:00,75.9,44.0,27.64,ENE,60,1.6,3.1,32,0.00,,,0.00,WSDL version 420,2013-04-11 22:33:00,
2013-04-11 18:38:00,75.8,43.9,27.61,South,180,1.9,3.1,32,0.00,,,0.00,WSDL version 420,2013-04-11 22:38:00,
2013-04-11 18:43:00,75.7,43.4,27.61,East,98,0.4,3.1,31,0.00,,,0.00,WSDL version 420,2013-04-11 22:43:00,
2013-04-11 18:53:00,75.4,42.7,27.61,SE,135,0.0,2.9,31,0.00,,,0.00,WSDL version 420,2013-04-11 22:53:00,
2013-04-11 18:58:00,75.4,42.7,27.61,ESE,105,0.0,2.0,31,0.00,,,0.00,WSDL version 420,2013-04-11 22:58:00,
2013-04-11 19:03:00,75.2,42.5,27.61,ENE,68,0.9,2.0,31,0.00,,,0.00,WSDL version 420,2013-04-11 23:03:00,
2013-04-11 19:08:00,75.0,43.2,27.61,ENE,60,0.0,2.0,32,0.00,,,0.00,WSDL version 420,2013-04-11 23:08:00,
2013-04-11 19:18:00,74.8,43.0,27.61,East,101,1.2,2.0,32,0.00,,,0.00,WSDL version 420,2013-04-11 23:18:00,
2013-04-11 19:23:00,74.6,42.8,27.61,East,90,1.3,2.0,32,0.00,,,0.00,WSDL version 420,2013-04-11 23:23:00,
2013-04-11 19:33:00,74.2,43.3,27.61,NNE,23,1.2,2.9,33,0.00,,,0.00,WSDL version 420,2013-04-11 23:33:00,
2013-04-11 19:44:00,73.9,43.0,27.61,ENE,73,0.8,4.0,33,0.00,,,0.00,WSDL version 420,2013-04-11 23:44:00,
2013-04-11 19:49:00,73.8,42.9,27.61,NE,45,0.9,4.0,33,0.00,,,0.00,WSDL version 420,2013-04-11 23:49:00,
2013-04-11 19:54:00,73.8,42.9,27.61,NE,53,0.0,1.6,33,0.00,,,0.00,WSDL version 420,2013-04-11 23:54:00,
2013-04-11 19:59:00,73.6,42.7,27.61,NNW,345,0.0,1.6,33,0.00,,,0.00,WSDL version 420,2013-04-11 23:59:00,
2013-04-11 20:04:00,73.5,43.2,27.61,NE,51,0.3,1.1,34,0.00,,,0.00,WSDL version 420,2013-04-12 00:04:00,
2013-04-11 20:09:00,73.4,43.4,27.61,NE,53,1.4,1.6,34,0.00,,,0.00,WSDL version 420,2013-04-12 00:09:00,
2013-04-11 20:14:00,73.3,43.3,27.61,SSW,195,0.3,1.6,34,0.00,,,0.00,WSDL version 420,2013-04-12 00:14:00,
2013-04-11 20:21:00,73.1,43.1,27.61,ESE,113,0.0,1.1,34,0.00,,,0.00,WSDL version 420,2013-04-12 00:21:00,
2013-04-11 20:26:00,72.9,43.7,27.61,SE,128,1.6,2.7,35,0.00,,,0.00,WSDL version 420,2013-04-12 00:26:00,
2013-04-11 20:36:00,72.7,43.5,27.58,NE,38,0.3,3.6,35,0.00,,,0.00,WSDL version 420,2013-04-12 00:36:00,
2013-04-11 20:46:00,72.4,43.6,27.58,North,353,1.3,1.3,36,0.00,,,0.00,WSDL version 420,2013-04-12 00:46:00,
2013-04-11 20:51:00,72.3,43.9,27.58,NNE,17,0.9,1.3,36,0.00,,,0.00,WSDL version 420,2013-04-12 00:51:00,
2013-04-11 20:59:00,72.3,43.9,27.58,WNW,293,0.7,3.4,36,0.00,,,0.00,WSDL version 420,2013-04-12 00:59:00,
2013-04-11 21:04:00,72.2,44.3,27.61,East,98,1.3,2.0,37,0.00,,,0.00,WSDL version 420,2013-04-12 01:04:00,
2013-04-11 21:09:00,72.1,44.5,27.61,NNE,23,1.4,2.7,37,0.00,,,0.00,WSDL version 420,2013-04-12 01:09:00,
2013-04-11 21:14:00,71.9,44.9,27.61,ESE,118,1.1,2.7,38,0.00,,,0.00,WSDL version 420,2013-04-12 01:14:00,
2013-04-11 21:19:00,71.8,44.8,27.61,SSE,158,2.2,3.4,38,0.00,,,0.00,WSDL version 420,2013-04-12 01:19:00,
2013-04-11 21:24:00,71.8,44.8,27.61,ENE,73,0.0,3.4,38,0.00,,,0.00,WSDL version 420,2013-04-12 01:24:00,
2013-04-11 21:29:00,71.5,45.5,27.61,ENE,60,0.4,2.2,40,0.00,,,0.00,WSDL version 420,2013-04-12 01:29:00,
2013-04-11 21:34:00,71.2,46.6,27.58,ENE,60,0.4,1.6,42,0.00,,,0.00,WSDL version 420,2013-04-12 01:34:00,
2013-04-11 21:39:00,70.9,46.7,27.58,ESE,105,0.0,1.6,42,0.00,,,0.00,WSDL version 420,2013-04-12 01:39:00,
2013-04-11 21:44:00,70.0,46.7,27.58,SE,143,0.0,0.0,45,0.00,,,0.00,WSDL version 420,2013-04-12 01:44:00,
2013-04-11 21:49:00,69.1,47.3,27.61,SW,218,0.4,1.3,46,0.00,,,0.00,WSDL version 420,2013-04-12 01:49:00,
2013-04-11 21:54:00,69.2,47.5,27.61,SSW,210,0.7,2.0,46,0.00,,,0.00,WSDL version 420,2013-04-12 01:54:00,
2013-04-11 21:59:00,69.1,47.5,27.61,ESE,113,0.8,4.0,46,0.00,,,0.00,WSDL version 420,2013-04-12 01:59:00,
2013-04-11 22:04:00,68.7,48.1,27.61,NE,45,0.0,4.0,48,0.04,,,0.04,WSDL version 420,2013-04-12 02:04:00,
2013-04-11 22:09:00,68.4,48.5,27.61,ENE,68,0.0,0.0,49,0.04,,,0.04,WSDL version 420,2013-04-12 02:09:00,
2013-04-11 22:14:00,68.1,48.6,27.61,ENE,68,0.0,0.0,50,0.04,,,0.04,WSDL version 420,2013-04-12 02:14:00,
2013-04-11 22:19:00,67.5,49.1,27.61,NNE,23,0.0,0.0,52,0.04,,,0.04,WSDL version 420,2013-04-12 02:19:00,
2013-04-11 22:24:00,67.3,49.8,27.61,ESE,113,0.0,0.0,54,0.08,,,0.08,WSDL version 420,2013-04-12 02:24:00,
2013-04-11 22:29:00,67.0,49.9,27.61,ESE,113,0.0,0.0,54,0.08,,,0.08,WSDL version 420,2013-04-12 02:29:00,
2013-04-11 22:34:00,66.9,50.1,27.58,ENE,68,0.0,0.0,55,0.08,,,0.08,WSDL version 420,2013-04-12 02:34:00,
2013-04-11 22:39:00,66.9,50.4,27.58,East,90,0.0,0.0,56,0.08,,,0.08,WSDL version 420,2013-04-12 02:39:00,
2013-04-11 22:44:00,66.8,50.9,27.58,East,90,0.0,0.0,57,0.08,,,0.08,WSDL version 420,2013-04-12 02:44:00,
2013-04-11 22:49:00,66.7,50.9,27.61,ENE,73,0.0,0.0,57,0.08,,,0.08,WSDL version 420,2013-04-12 02:49:00,
2013-04-11 22:54:00,66.7,51.0,27.61,East,90,0.0,0.0,57,0.08,,,0.08,WSDL version 420,2013-04-12 02:54:00,
2013-04-11 23:00:00,66.4,51.4,27.61,SE,146,0.0,1.1,59,0.04,,,0.08,WSDL version 420,2013-04-12 03:00:00,
2013-04-11 23:05:00,66.4,51.6,27.58,ESE,120,0.0,0.0,59,0.04,,,0.08,WSDL version 420,2013-04-12 03:05:00,
2013-04-11 23:10:00,65.8,51.4,27.58,ESE,105,0.0,0.0,61,0.04,,,0.08,WSDL version 420,2013-04-12 03:10:00,
2013-04-11 23:15:00,65.8,52.3,27.58,WNW,287,0.0,0.0,62,0.08,,,0.12,WSDL version 420,2013-04-12 03:15:00,
2013-04-11 23:20:00,65.6,52.4,27.58,SSE,165,0.0,0.0,63,0.08,,,0.12,WSDL version 420,2013-04-12 03:20:00,
2013-04-11 23:25:00,65.5,52.9,27.58,East,83,0.6,1.6,64,0.09,,,0.17,WSDL version 420,2013-04-12 03:25:00,
2013-04-11 23:30:00,65.2,53.2,27.58,East,90,0.0,1.6,65,0.09,,,0.17,WSDL version 420,2013-04-12 03:30:00,
2013-04-11 23:35:00,65.1,53.5,27.58,SE,143,0.0,0.0,66,0.12,,,0.20,WSDL version 420,2013-04-12 03:35:00,
2013-04-11 23:40:00,65.2,54.0,27.58,East,90,0.0,1.1,67,0.12,,,0.20,WSDL version 420,2013-04-12 03:40:00,
2013-04-11 23:45:00,65.0,53.8,27.58,North,354,0.0,1.1,67,0.12,,,0.20,WSDL version 420,2013-04-12 03:45:00,
2013-04-11 23:50:00,64.9,53.7,27.61,SSW,195,1.6,2.0,66,0.17,,,0.25,WSDL version 420,2013-04-12 03:50:00,
2013-04-11 23:55:00,64.6,53.3,27.61,WNW,300,1.6,2.5,67,0.21,,,0.29,WSDL version 420,2013-04-12 03:55:00,